CYGLCYMO

Guest
Details From CYGL - LA GRANDE RIVIERE
To CYMO - MOOSONEE
Flight Number -
Tags generated
Created
Modified
Stats Distance 176 nm / 326 km
Max Altitude 18,000 ft / 5,486 m
Waypoints 4
Social Downloads 0
Likes 0
Share VATSIM

Download

Looking for another format? Having issues loading an existing format? Contact us
Advertisement - Login to hide

Notes

Basic altitude profile: - Ascent Rate: 2500ft/min - Ascent Speed: 250kts - Cruise Altitude: 35000ft - Cruise Speed: 420kts - Descent Rate: 1500ft/min - Descent Speed: 250kts Options: - Use NATs: yes - Use PACOTS: yes - Use low airways: yes - Use high airways: yes

Route

CYGL YGL J535 YMO CYMO

ID Type Via Altitude Latitude Longitude Leg Dist Tot Dist Heading (true) Name
O CYGL APT - 0 ft / 0 m 53.62537˚ -77.70412˚ - 0 nm - LA GRANDE RIVIERE
YGL VOR - 100 ft / 30 m 53.62550˚ -77.71622˚ 0 nm 0 nm 271° / 271° LA GRANDE RIVIERE VOR-DME
YMO VOR J535 (AWY-HI) 18,000 ft / 5,486 m 51.29147˚ -80.60728˚ 175 nm 176 nm 218° / 216° MOOSONEE VOR-DME
O CYMO APT - 0 ft / 0 m 51.29210˚ -80.60828˚ 0 nm 176 nm 315° / 315° MOOSONEE

Altitude Profile

Advertisement - Login to hide

Weather


0- 5 10 15 20 25 30 35+ Temperature / ° C

Clouds and Precipitation
Forecast for 2018-05-22 18:00 UTC. Updated 2 hours ago

Ground ~20,000 ft ~40,000 ft Winds

CYGL

Details ICAO CYGL (YGL)
Name LA GRANDE RIVIERE
Region Canada
Timezone America/Montreal (UTC-4.0)
Stats Elevation 639 ft / 195 m (AMSL)
Location 53.625369° -77.704115°
Runways 1
Magnetic Variation 15.267° W

METAR

CYGL 221900Z 04010G16KT 15SM SCT024 BKN220 M01/M07 A3002 RMK SC4CI3 SLP182

Decode

TAF

TAF CYGL 221739Z 2218/2318 36010G20KT P6SM BKN020 TEMPO 2218/2223 BKN025 FM230400 02005KT P6SM SCT020 TEMPO 2304/2307 BKN020 FM231500 32005KT P6SM SCT025 OVC130 RMK NXT FCST BY 230000Z

Decode

Departure Runways

ID Width Length Bearing (true) Bearing (mag) Surface Threshold Offset Overrun Length
13 150 ft / 46 m 6,469 ft / 1,972 m 113.03° 128.30° Asphalt 0 ft / 0 m 0 ft / 0 m
31 150 ft / 46 m 6,469 ft / 1,972 m 293.05° 308.32° Asphalt 0 ft / 0 m 0 ft / 0 m

CYMO

Details ICAO CYMO (YMO)
Name MOOSONEE
Region Canada
Timezone America/Toronto (UTC-4.0)
Stats Elevation 30 ft / 9 m (AMSL)
Location 51.292095° -80.608276°
Runways 2
Magnetic Variation 12.081° W

METAR

CYMO 221900Z AUTO 01011G20KT 340V050 9SM SCT130 04/M01 A3003 RMK SLP171

Decode

TAF

TAF AMD CYMO 221806Z 2218/2306 04012KT P6SM BKN120 FM222100 02010KT P6SM BKN030 OVC100 TEMPO 2221/2306 BKN020 BKN100 RMK FCST BASED ON AUTO OBS. NXT FCST BY 230000Z

Decode

Destination Runways

ID Width Length Bearing (true) Bearing (mag) Surface Threshold Offset Overrun Length
06 100 ft / 30 m 4,004 ft / 1,220 m 43.12° 55.20° Asphalt 0 ft / 0 m 0 ft / 0 m
14 100 ft / 30 m 3,508 ft / 1,069 m 127.35° 139.43° Dirt 0 ft / 0 m 0 ft / 0 m
24 100 ft / 30 m 4,004 ft / 1,220 m 223.13° 235.21° Asphalt 0 ft / 0 m 0 ft / 0 m
32 100 ft / 30 m 3,508 ft / 1,069 m 307.35° 319.43° Dirt 0 ft / 0 m 0 ft / 0 m